Time;durP1;ratioP1;P1;durP2;ratioP2;P2;SDS_P1;SDS_P2;PMS_P1;PMS_P2;Temp;Humidity;BMP_temperature;BMP_pressure;BME280_temperature;BME280_humidity;BME280_pressure;Samples;Min_cycle;Max_cycle;Signal;HPM_P1;HPM_P2
2021/08/15 00:00:35;;;;;;;11.63;5.87;;;19.90;99.90;;;;;;4131723;28;20464;-77
2021/08/15 00:02:37;;;;;;;11.13;5.57;;;19.80;99.90;;;;;;4133336;28;20215;-77
2021/08/15 00:04:39;;;;;;;8.83;5.50;;;19.80;99.90;;;;;;4128607;28;20212;-77
2021/08/15 00:06:42;;;;;;;9.57;5.20;;;19.70;99.90;;;;;;4132131;28;20239;-77
2021/08/15 00:08:43;;;;;;;8.87;4.93;;;19.70;99.90;;;;;;4133217;28;20266;-77
2021/08/15 00:10:45;;;;;;;8.73;5.30;;;19.70;99.90;;;;;;4131147;28;20618;-77
2021/08/15 00:12:47;;;;;;;10.07;5.60;;;19.60;99.90;;;;;;4125893;28;20233;-77
2021/08/15 00:14:49;;;;;;;9.03;5.30;;;19.60;99.90;;;;;;4133210;28;20211;-77
2021/08/15 00:16:51;;;;;;;9.33;5.60;;;19.60;99.90;;;;;;4132597;28;20242;-77
2021/08/15 00:18:52;;;;;;;11.97;5.23;;;19.60;99.90;;;;;;4132639;28;20213;-77
2021/08/15 00:20:54;;;;;;;9.40;5.63;;;19.60;99.90;;;;;;4131448;28;20210;-77
2021/08/15 00:22:58;;;;;;;10.97;5.20;;;19.60;99.90;;;;;;4128229;28;20226;-77
2021/08/15 00:25:00;;;;;;;6.83;4.90;;;19.50;99.90;;;;;;4132531;28;20207;-77
2021/08/15 00:27:02;;;;;;;10.73;5.70;;;19.50;99.90;;;;;;4131350;28;20300;-77
2021/08/15 00:29:04;;;;;;;10.70;5.63;;;19.50;99.90;;;;;;4132108;28;20270;-77
2021/08/15 00:31:06;;;;;;;8.87;5.67;;;19.40;99.90;;;;;;4122691;28;20225;-77
2021/08/15 00:33:07;;;;;;;9.33;5.80;;;19.40;99.90;;;;;;4132086;28;20235;-77
2021/08/15 00:35:10;;;;;;;8.67;5.53;;;19.40;99.90;;;;;;4132408;28;20217;-77
2021/08/15 00:37:12;;;;;;;10.10;6.10;;;19.40;99.90;;;;;;4130689;28;20250;-77
2021/08/15 00:39:15;;;;;;;9.93;6.00;;;19.30;99.90;;;;;;4132572;28;20277;-77
2021/08/15 00:41:17;;;;;;;13.03;5.90;;;19.20;99.90;;;;;;4132115;28;20224;-77
2021/08/15 00:43:18;;;;;;;9.90;5.70;;;19.30;99.90;;;;;;4132356;28;20221;-77
2021/08/15 00:45:20;;;;;;;10.50;6.03;;;19.20;99.90;;;;;;4132533;28;20213;-77
2021/08/15 00:47:24;;;;;;;11.60;6.57;;;19.20;99.90;;;;;;4125406;28;20226;-77
2021/08/15 00:49:26;;;;;;;11.07;6.27;;;19.10;99.90;;;;;;4132056;28;20218;-77
2021/08/15 00:51:28;;;;;;;10.27;5.77;;;19.00;99.90;;;;;;4132356;28;20214;-77
2021/08/15 00:53:30;;;;;;;9.07;5.60;;;19.00;99.90;;;;;;4128563;28;20706;-77
2021/08/15 00:55:33;;;;;;;9.80;5.77;;;19.00;99.90;;;;;;4118316;28;20225;-77
2021/08/15 00:57:36;;;;;;;9.33;5.60;;;18.90;99.90;;;;;;4131414;28;20236;-77
2021/08/15 00:59:39;;;;;;;9.77;5.33;;;18.90;99.90;;;;;;4131865;28;20254;-77
2021/08/15 01:01:41;;;;;;;8.77;5.37;;;18.90;99.90;;;;;;4130943;28;20672;-77
2021/08/15 01:03:42;;;;;;;8.37;5.27;;;18.90;99.90;;;;;;4133347;28;20206;-77
2021/08/15 01:05:44;;;;;;;9.97;5.20;;;18.80;99.90;;;;;;4147190;28;20267;-77
2021/08/15 01:07:46;;;;;;;11.43;5.40;;;18.80;99.90;;;;;;4139385;28;20233;-77
2021/08/15 01:09:48;;;;;;;12.30;5.37;;;18.80;99.90;;;;;;4132411;28;20212;-77
2021/08/15 01:11:51;;;;;;;10.17;5.27;;;18.70;99.90;;;;;;4129761;28;20223;-77
2021/08/15 01:13:53;;;;;;;7.63;5.03;;;18.70;99.90;;;;;;4127068;28;20229;-77
2021/08/15 01:15:55;;;;;;;7.40;4.77;;;18.70;99.90;;;;;;4135533;28;20217;-77
2021/08/15 01:17:57;;;;;;;7.73;4.67;;;18.60;99.90;;;;;;4131528;28;20280;-77
2021/08/15 01:19:59;;;;;;;7.33;4.43;;;18.60;99.90;;;;;;4131269;28;20217;-77
2021/08/15 01:22:00;;;;;;;6.57;4.40;;;18.50;99.90;;;;;;4125080;28;20270;-77
2021/08/15 01:24:04;;;;;;;9.53;4.50;;;18.50;99.90;;;;;;4130499;28;20264;-77
2021/08/15 01:26:07;;;;;;;7.83;4.50;;;18.50;99.90;;;;;;4131404;28;20585;-77
2021/08/15 01:28:16;;;;;;;7.67;4.40;;;18.50;99.90;;;;;;4131002;28;20263;-77
2021/08/15 01:30:18;;;;;;;8.33;4.73;;;18.40;99.90;;;;;;4117562;28;20217;-77
2021/08/15 01:32:23;;;;;;;10.03;5.03;;;18.40;99.90;;;;;;4115165;28;20218;-77
2021/08/15 01:34:24;;;;;;;7.23;4.60;;;18.40;99.90;;;;;;4115784;28;20278;-77
2021/08/15 01:36:29;;;;;;;8.23;4.73;;;18.40;99.90;;;;;;4121636;28;20223;-77
2021/08/15 01:38:34;;;;;;;9.10;4.97;;;18.40;99.90;;;;;;4120246;28;20214;-77
2021/08/15 01:40:36;;;;;;;8.80;5.00;;;18.30;99.90;;;;;;4114768;28;20612;-77
2021/08/15 01:42:37;;;;;;;10.10;5.43;;;18.30;99.90;;;;;;4123699;28;20216;-75
2021/08/15 01:44:40;;;;;;;9.70;5.23;;;18.40;99.90;;;;;;4128620;28;20210;-77
2021/08/15 01:46:42;;;;;;;9.03;5.30;;;18.30;99.90;;;;;;4128029;28;20279;-77
2021/08/15 01:48:44;;;;;;;9.97;5.03;;;18.30;99.90;;;;;;4129176;28;20212;-77
2021/08/15 01:50:46;;;;;;;10.83;5.40;;;18.20;99.90;;;;;;4128365;28;20212;-77
2021/08/15 01:52:47;;;;;;;8.70;4.90;;;18.20;99.90;;;;;;4131815;28;20216;-77
2021/08/15 01:54:49;;;;;;;9.53;5.07;;;18.20;99.90;;;;;;4127477;28;20751;-77
2021/08/15 01:56:51;;;;;;;8.90;5.13;;;18.10;99.90;;;;;;4126293;28;20237;-78
2021/08/15 01:58:53;;;;;;;10.53;5.03;;;18.10;99.90;;;;;;4130369;28;20216;-76
2021/08/15 02:00:56;;;;;;;8.27;4.77;;;18.10;99.90;;;;;;4130544;28;20243;-77
2021/08/15 02:02:57;;;;;;;8.73;4.83;;;18.00;99.90;;;;;;4130388;28;20216;-78
2021/08/15 02:04:59;;;;;;;9.10;4.53;;;18.00;99.90;;;;;;4117881;28;20269;-78
2021/08/15 02:07:01;;;;;;;8.63;4.80;;;18.00;99.90;;;;;;4121779;28;20229;-77
2021/08/15 02:09:02;;;;;;;9.97;4.70;;;18.00;99.90;;;;;;4131072;28;20260;-77
2021/08/15 02:11:04;;;;;;;7.10;4.53;;;17.90;99.90;;;;;;4130934;28;20212;-77
2021/08/15 02:13:07;;;;;;;8.50;4.53;;;17.90;99.90;;;;;;4124218;28;20213;-77
2021/08/15 02:15:10;;;;;;;7.93;4.37;;;17.90;99.90;;;;;;4135171;28;20212;-77
2021/08/15 02:17:13;;;;;;;7.40;4.80;;;17.90;99.90;;;;;;4130765;28;20286;-78
2021/08/15 02:19:15;;;;;;;11.13;5.10;;;17.80;99.90;;;;;;4130586;28;20719;-77
2021/08/15 02:21:17;;;;;;;7.80;4.10;;;17.80;99.90;;;;;;4128838;28;20224;-77
2021/08/15 02:23:19;;;;;;;9.27;4.63;;;17.80;99.90;;;;;;4131301;28;20216;-77
2021/08/15 02:25:22;;;;;;;7.10;4.23;;;17.80;99.90;;;;;;4131234;28;20239;-77
2021/08/15 02:27:24;;;;;;;8.77;3.93;;;17.80;99.90;;;;;;4129624;28;20247;-78
2021/08/15 02:29:26;;;;;;;8.20;4.73;;;17.80;99.90;;;;;;4125682;28;20267;-77
2021/08/15 02:31:27;;;;;;;8.27;4.37;;;17.70;99.90;;;;;;4129894;28;20217;-77
2021/08/15 02:33:30;;;;;;;8.23;4.77;;;17.70;99.90;;;;;;4130972;28;20237;-77
2021/08/15 02:35:33;;;;;;;9.20;4.67;;;17.70;99.90;;;;;;4130415;28;20292;-77
2021/08/15 02:37:37;;;;;;;8.60;5.30;;;17.70;99.90;;;;;;4128724;28;20240;-77
2021/08/15 02:39:39;;;;;;;9.43;5.23;;;17.70;99.90;;;;;;4130493;28;20224;-77
2021/08/15 02:41:41;;;;;;;11.23;5.60;;;17.60;99.90;;;;;;4130936;28;20209;-78
2021/08/15 02:43:42;;;;;;;9.47;5.33;;;17.60;99.90;;;;;;4130553;28;20215;-78
2021/08/15 02:45:44;;;;;;;10.93;5.90;;;17.60;99.90;;;;;;4124622;28;20267;-77
2021/08/15 02:47:46;;;;;;;13.37;5.90;;;17.50;99.90;;;;;;4127567;28;20278;-77
2021/08/15 02:49:49;;;;;;;10.33;5.83;;;17.60;99.90;;;;;;4130543;28;20243;-77
2021/08/15 02:51:51;;;;;;;10.97;6.00;;;17.50;99.90;;;;;;4131059;28;20648;-78
2021/08/15 02:53:53;;;;;;;9.00;5.27;;;17.40;99.90;;;;;;4130864;28;20647;-77
2021/08/15 02:55:55;;;;;;;8.33;5.47;;;17.40;99.90;;;;;;4123323;28;20216;-78
2021/08/15 02:57:56;;;;;;;10.30;5.37;;;17.30;99.90;;;;;;4130335;28;20236;-77
2021/08/15 02:59:58;;;;;;;8.47;5.10;;;17.30;99.90;;;;;;4128094;28;20239;-77
2021/08/15 03:02:00;;;;;;;7.47;5.00;;;17.30;99.90;;;;;;4129163;28;20219;-77
2021/08/15 03:04:01;;;;;;;12.43;4.93;;;17.30;99.90;;;;;;4116990;28;20220;-77
2021/08/15 03:06:04;;;;;;;7.93;4.63;;;17.30;99.90;;;;;;4114771;28;20236;-78
2021/08/15 03:08:06;;;;;;;7.77;4.73;;;17.30;99.90;;;;;;4133335;28;20228;-77
2021/08/15 03:10:10;;;;;;;8.70;5.00;;;17.20;99.90;;;;;;4132549;28;20220;-77
2021/08/15 03:12:12;;;;;;;8.90;5.07;;;17.20;99.90;;;;;;4130948;28;20212;-77
2021/08/15 03:14:13;;;;;;;8.47;5.07;;;17.20;99.90;;;;;;4134433;28;20266;-78
2021/08/15 03:16:15;;;;;;;11.13;5.50;;;17.20;99.90;;;;;;4133565;28;20216;-77
2021/08/15 03:18:18;;;;;;;11.13;5.67;;;17.10;99.90;;;;;;4133490;28;20212;-77
2021/08/15 03:20:19;;;;;;;11.93;5.67;;;17.10;99.90;;;;;;4133218;28;20213;-77
2021/08/15 03:22:22;;;;;;;11.53;5.60;;;17.00;99.90;;;;;;4124041;28;20217;-77
2021/08/15 03:24:24;;;;;;;11.13;4.93;;;17.00;99.90;;;;;;4117651;28;20251;-77
2021/08/15 03:26:26;;;;;;;11.07;5.53;;;16.90;99.90;;;;;;4124728;28;20217;-78
2021/08/15 03:28:27;;;;;;;9.20;4.90;;;16.90;99.90;;;;;;4134849;28;20215;-78
2021/08/15 03:30:29;;;;;;;6.30;3.97;;;16.90;99.90;;;;;;4119921;28;20272;-77
2021/08/15 03:32:31;;;;;;;8.93;4.80;;;16.80;99.90;;;;;;4129799;28;20216;-77
2021/08/15 03:34:32;;;;;;;9.57;5.00;;;16.80;99.90;;;;;;4132997;28;20286;-77
2021/08/15 03:36:35;;;;;;;11.80;4.67;;;16.80;99.90;;;;;;4132563;28;20236;-77
2021/08/15 03:38:38;;;;;;;9.27;4.77;;;16.80;99.90;;;;;;4136647;28;20217;-75
2021/08/15 03:40:39;;;;;;;9.83;5.13;;;16.70;99.90;;;;;;4120770;28;20215;-75
2021/08/15 03:42:41;;;;;;;7.43;4.53;;;16.70;99.90;;;;;;4118990;28;20673;-75
2021/08/15 03:44:43;;;;;;;8.90;5.13;;;16.70;99.90;;;;;;4125954;28;20208;-75
2021/08/15 03:46:45;;;;;;;10.47;4.60;;;16.70;99.90;;;;;;4131901;28;20259;-75
2021/08/15 03:48:47;;;;;;;10.07;4.60;;;16.70;99.90;;;;;;4135165;28;20307;-76
2021/08/15 03:50:48;;;;;;;9.33;5.00;;;16.70;99.90;;;;;;4133648;28;20224;-77
2021/08/15 03:52:50;;;;;;;9.07;4.57;;;16.70;99.90;;;;;;4134463;28;20289;-75
2021/08/15 03:54:53;;;;;;;8.93;4.33;;;16.70;99.90;;;;;;4129817;28;20232;-75
2021/08/15 03:56:55;;;;;;;10.50;5.27;;;16.40;99.90;;;;;;4132116;28;20236;-75
2021/08/15 03:58:57;;;;;;;10.67;4.70;;;16.60;99.90;;;;;;4137432;28;20220;-78
2021/08/15 04:00:58;;;;;;;8.17;4.57;;;16.60;99.90;;;;;;4132575;28;20288;-75
2021/08/15 04:03:00;;;;;;;8.50;4.57;;;16.60;99.90;;;;;;4133871;28;20212;-76
2021/08/15 04:05:02;;;;;;;7.47;4.27;;;16.50;99.90;;;;;;4132204;28;20240;-75
2021/08/15 04:07:04;;;;;;;9.20;4.27;;;16.50;99.90;;;;;;4127631;28;20286;-75
2021/08/15 04:09:06;;;;;;;8.73;4.70;;;16.60;99.90;;;;;;4130492;28;20208;-75
2021/08/15 04:11:09;;;;;;;10.60;4.57;;;16.60;99.90;;;;;;4133176;28;20606;-75
2021/08/15 04:13:11;;;;;;;8.10;4.70;;;16.50;99.90;;;;;;4128871;28;20240;-77
2021/08/15 04:15:12;;;;;;;10.27;4.90;;;16.50;99.90;;;;;;4129687;28;20267;-76
2021/08/15 04:17:16;;;;;;;7.60;4.63;;;16.50;99.90;;;;;;4132827;28;20255;-75
2021/08/15 04:19:17;;;;;;;11.20;4.93;;;16.50;99.90;;;;;;4132340;28;20779;-76
2021/08/15 04:21:19;;;;;;;9.50;5.13;;;16.50;99.90;;;;;;4133201;28;20217;-78
2021/08/15 04:23:21;;;;;;;9.67;4.80;;;16.50;99.90;;;;;;4132857;28;20213;-76
2021/08/15 04:25:22;;;;;;;8.87;4.63;;;16.50;99.90;;;;;;4134130;28;20274;-75
2021/08/15 04:27:25;;;;;;;8.40;4.70;;;16.50;99.90;;;;;;4132370;28;20267;-79
2021/08/15 04:29:27;;;;;;;7.87;4.67;;;16.50;99.90;;;;;;4135077;28;20289;-76
2021/08/15 04:31:29;;;;;;;9.40;4.63;;;16.50;99.90;;;;;;4131258;28;20598;-75
2021/08/15 04:33:30;;;;;;;8.43;4.90;;;16.50;99.90;;;;;;4135942;28;20227;-76
2021/08/15 04:35:32;;;;;;;9.13;4.97;;;16.50;99.90;;;;;;4132924;28;20611;-76
2021/08/15 04:37:34;;;;;;;7.20;4.50;;;16.40;99.90;;;;;;4130951;28;20638;-76
2021/08/15 04:39:35;;;;;;;9.13;4.80;;;16.40;99.90;;;;;;4132787;28;20234;-75
2021/08/15 04:41:37;;;;;;;7.50;4.20;;;16.40;99.90;;;;;;4127969;28;20233;-75
2021/08/15 04:43:40;;;;;;;8.67;5.00;;;16.40;99.90;;;;;;4130557;28;20204;-75
2021/08/15 04:45:42;;;;;;;10.13;5.03;;;16.40;99.90;;;;;;4124402;28;20264;-77
2021/08/15 04:47:44;;;;;;;8.90;4.37;;;16.40;99.90;;;;;;4125467;28;20645;-74
2021/08/15 04:49:45;;;;;;;9.40;4.33;;;16.40;99.90;;;;;;4127233;28;20220;-80
2021/08/15 04:51:47;;;;;;;8.17;4.90;;;16.40;99.90;;;;;;4132146;28;20216;-80
2021/08/15 04:53:49;;;;;;;8.03;4.97;;;16.40;99.90;;;;;;4132508;28;20291;-80
2021/08/15 04:55:50;;;;;;;8.83;4.60;;;16.40;99.90;;;;;;4133894;28;20727;-81
2021/08/15 04:57:52;;;;;;;11.03;4.70;;;16.40;99.90;;;;;;4139042;28;20236;-80
2021/08/15 04:59:55;;;;;;;9.43;5.03;;;16.40;99.90;;;;;;4135817;28;20679;-81
2021/08/15 05:01:57;;;;;;;10.37;4.50;;;16.40;99.90;;;;;;4133815;28;20723;-81
2021/08/15 05:03:59;;;;;;;11.97;5.10;;;16.40;99.90;;;;;;4140891;28;20240;-81
2021/08/15 05:06:03;;;;;;;9.63;4.97;;;16.50;99.90;;;;;;4138142;28;20205;-80
2021/08/15 05:08:05;;;;;;;8.30;4.67;;;16.50;99.90;;;;;;4137585;28;20236;-81
2021/08/15 05:10:08;;;;;;;9.87;4.87;;;16.50;99.90;;;;;;4134582;28;20476;-81
2021/08/15 05:12:10;;;;;;;9.93;4.63;;;16.50;99.90;;;;;;4132044;28;20213;-82
2021/08/15 05:14:11;;;;;;;11.07;4.70;;;16.50;99.90;;;;;;4132984;28;20208;-77
2021/08/15 05:16:14;;;;;;;11.70;5.40;;;16.50;99.90;;;;;;4132273;28;20239;-77
2021/08/15 05:18:16;;;;;;;9.47;5.07;;;16.50;99.90;;;;;;4129185;28;20208;-75
2021/08/15 05:20:18;;;;;;;7.83;4.60;;;16.50;99.90;;;;;;4132105;28;20219;-77
2021/08/15 05:22:19;;;;;;;10.10;4.77;;;16.50;99.90;;;;;;4132068;28;20216;-77
2021/08/15 05:24:21;;;;;;;10.63;4.70;;;16.50;99.90;;;;;;4129559;28;20255;-78
2021/08/15 05:26:23;;;;;;;8.57;4.57;;;16.50;99.90;;;;;;4116102;28;20204;-77
2021/08/15 05:28:24;;;;;;;9.17;4.60;;;16.50;99.90;;;;;;4130515;28;20227;-76
2021/08/15 05:30:26;;;;;;;9.27;5.10;;;16.50;99.90;;;;;;4130425;28;20212;-77
2021/08/15 05:32:29;;;;;;;12.70;5.00;;;16.50;99.90;;;;;;4129936;28;20212;-76
2021/08/15 05:34:31;;;;;;;9.87;4.73;;;16.50;99.90;;;;;;4129707;28;20216;-77
2021/08/15 05:36:33;;;;;;;10.60;5.20;;;16.50;99.90;;;;;;4129279;28;20235;-76
2021/08/15 05:38:34;;;;;;;9.67;5.00;;;16.50;99.90;;;;;;4129747;28;20584;-76
2021/08/15 05:40:36;;;;;;;9.17;4.77;;;16.50;99.90;;;;;;4130681;28;20216;-76
2021/08/15 05:42:38;;;;;;;8.87;4.90;;;16.50;99.90;;;;;;4131161;28;20216;-76
2021/08/15 05:44:39;;;;;;;8.43;4.57;;;16.50;99.90;;;;;;4126804;28;20218;-77
2021/08/15 05:46:41;;;;;;;9.57;4.77;;;16.50;99.90;;;;;;4129744;28;20239;-76
2021/08/15 05:48:44;;;;;;;9.33;4.40;;;16.50;99.90;;;;;;4133138;28;20212;-76
2021/08/15 05:50:46;;;;;;;7.37;4.73;;;16.50;99.90;;;;;;4130636;28;20577;-77
2021/08/15 05:52:47;;;;;;;8.70;4.37;;;16.50;99.90;;;;;;4131116;28;20274;-78
2021/08/15 05:54:49;;;;;;;8.27;4.03;;;16.50;99.90;;;;;;4116362;28;20283;-76
2021/08/15 05:56:51;;;;;;;11.03;4.40;;;16.60;99.90;;;;;;4127554;28;20284;-76
2021/08/15 05:58:52;;;;;;;7.73;4.67;;;16.60;99.90;;;;;;4130675;28;20243;-76
2021/08/15 06:00:54;;;;;;;9.50;4.50;;;16.60;99.90;;;;;;4130727;28;20212;-76
2021/08/15 06:02:56;;;;;;;7.93;4.40;;;16.50;99.90;;;;;;4129591;28;20646;-77
2021/08/15 06:04:59;;;;;;;7.93;4.60;;;16.60;99.90;;;;;;4121593;28;20212;-76
2021/08/15 06:07:01;;;;;;;9.97;4.93;;;16.60;99.90;;;;;;4121916;28;20228;-76
2021/08/15 06:09:03;;;;;;;10.50;5.47;;;16.70;99.90;;;;;;4129912;28;20225;-77
2021/08/15 06:11:04;;;;;;;12.00;5.17;;;16.70;99.90;;;;;;4131034;28;20216;-77
2021/08/15 06:13:06;;;;;;;13.30;5.07;;;16.70;99.90;;;;;;4130252;28;20266;-76
2021/08/15 06:15:12;;;;;;;10.37;5.67;;;16.80;99.90;;;;;;4114496;28;20694;-76
2021/08/15 06:17:14;;;;;;;9.93;5.10;;;16.80;99.90;;;;;;4123079;28;20235;-76
2021/08/15 06:19:15;;;;;;;8.20;4.70;;;16.80;99.90;;;;;;4132770;28;20204;-77
2021/08/15 06:21:18;;;;;;;8.07;4.63;;;16.80;99.90;;;;;;4128676;28;20241;-76
2021/08/15 06:23:20;;;;;;;8.07;4.70;;;16.80;99.90;;;;;;4129331;28;20212;-76
2021/08/15 06:25:22;;;;;;;9.53;4.80;;;16.90;99.90;;;;;;4130837;28;20204;-76
2021/08/15 06:27:23;;;;;;;7.70;4.07;;;16.90;99.90;;;;;;4130484;28;20651;-76
2021/08/15 06:29:25;;;;;;;13.00;4.67;;;16.90;99.90;;;;;;4123793;28;20220;-76
2021/08/15 06:31:27;;;;;;;8.57;4.60;;;16.90;99.90;;;;;;4114389;28;20220;-76
2021/08/15 06:33:28;;;;;;;16.30;4.93;;;17.00;99.90;;;;;;4127355;28;20215;-76
2021/08/15 06:35:30;;;;;;;7.23;4.57;;;17.10;99.90;;;;;;4131492;28;20264;-76
2021/08/15 06:37:33;;;;;;;13.40;4.83;;;17.10;99.90;;;;;;4130158;28;20240;-76
2021/08/15 06:39:35;;;;;;;8.17;4.80;;;17.10;99.90;;;;;;4124721;28;20216;-77
2021/08/15 06:41:37;;;;;;;11.30;4.57;;;17.10;99.90;;;;;;4132181;28;20215;-76
2021/08/15 06:43:39;;;;;;;9.63;4.40;;;17.20;99.90;;;;;;4136221;28;20212;-76
2021/08/15 06:45:41;;;;;;;7.23;4.07;;;17.20;99.90;;;;;;4136044;28;20293;-76
2021/08/15 06:47:43;;;;;;;8.07;4.47;;;17.20;99.90;;;;;;4132445;28;20239;-76
2021/08/15 06:49:44;;;;;;;10.60;4.57;;;17.30;99.90;;;;;;4130589;28;20672;-76
2021/08/15 06:51:47;;;;;;;9.43;4.53;;;17.30;99.90;;;;;;4137165;28;20216;-76
2021/08/15 06:53:50;;;;;;;9.20;4.43;;;17.30;99.90;;;;;;4136352;28;20248;-76
2021/08/15 06:55:51;;;;;;;7.73;4.47;;;17.40;99.90;;;;;;4135706;28;20771;-77
2021/08/15 06:57:53;;;;;;;9.27;4.67;;;17.40;99.90;;;;;;4134519;28;20782;-77
2021/08/15 06:59:55;;;;;;;10.07;5.03;;;17.40;99.90;;;;;;4119879;28;20212;-76
2021/08/15 07:01:57;;;;;;;9.33;4.87;;;17.50;99.90;;;;;;4120835;28;20266;-76
2021/08/15 07:03:58;;;;;;;9.17;4.77;;;17.50;99.90;;;;;;4135015;28;20213;-77
2021/08/15 07:06:00;;;;;;;9.00;4.50;;;17.60;99.90;;;;;;4133749;28;20201;-77
2021/08/15 07:08:02;;;;;;;7.93;4.50;;;17.60;99.90;;;;;;4118960;28;20627;-78
2021/08/15 07:10:06;;;;;;;8.40;4.87;;;17.60;99.90;;;;;;4137961;28;20227;-77
2021/08/15 07:12:08;;;;;;;8.53;4.70;;;17.70;99.90;;;;;;4145969;28;20207;-76
2021/08/15 07:14:10;;;;;;;9.63;4.90;;;17.70;99.90;;;;;;4143394;28;21139;-77
2021/08/15 07:16:12;;;;;;;11.03;5.70;;;17.70;99.90;;;;;;4125096;28;20232;-76
2021/08/15 07:18:13;;;;;;;10.57;4.90;;;17.80;99.90;;;;;;4135094;28;20620;-76
2021/08/15 07:20:16;;;;;;;8.47;5.07;;;17.80;99.90;;;;;;4131683;28;20220;-77
2021/08/15 07:22:17;;;;;;;9.00;4.80;;;17.90;99.90;;;;;;4136489;28;20285;-77
2021/08/15 07:24:19;;;;;;;7.67;4.43;;;17.90;99.90;;;;;;4134836;28;20730;-77
2021/08/15 07:26:22;;;;;;;10.47;4.67;;;18.00;99.90;;;;;;4135180;28;20259;-77
2021/08/15 07:28:24;;;;;;;7.30;4.60;;;18.10;99.90;;;;;;4135699;28;20216;-78
2021/08/15 07:30:26;;;;;;;8.10;4.60;;;18.10;99.90;;;;;;4136005;28;20582;-77
2021/08/15 07:32:28;;;;;;;10.27;5.10;;;18.20;99.90;;;;;;4133643;28;20268;-77
2021/08/15 07:34:30;;;;;;;9.13;4.97;;;18.20;99.90;;;;;;4122239;28;20672;-77
2021/08/15 07:36:31;;;;;;;10.03;5.30;;;18.30;99.90;;;;;;4134453;28;20290;-78
2021/08/15 07:38:33;;;;;;;9.93;4.67;;;18.40;99.90;;;;;;4135190;28;20266;-77
2021/08/15 07:40:35;;;;;;;7.90;4.70;;;18.40;99.90;;;;;;4134559;28;20260;-78
2021/08/15 07:42:39;;;;;;;8.13;4.63;;;18.50;99.90;;;;;;4129703;28;20217;-78
2021/08/15 07:44:40;;;;;;;7.90;4.50;;;18.60;99.90;;;;;;4127113;28;20219;-78
2021/08/15 07:46:42;;;;;;;12.20;5.70;;;18.70;99.90;;;;;;4134338;28;20283;-80
2021/08/15 07:48:44;;;;;;;10.40;5.13;;;18.70;99.90;;;;;;4134942;28;20731;-79
2021/08/15 07:50:45;;;;;;;10.87;5.27;;;18.80;99.90;;;;;;4135287;28;20227;-78
2021/08/15 07:52:47;;;;;;;10.83;5.40;;;18.90;99.90;;;;;;4131663;28;20729;-77
2021/08/15 07:54:49;;;;;;;11.73;5.20;;;19.00;99.90;;;;;;4128614;28;20216;-79
2021/08/15 07:56:50;;;;;;;10.60;5.40;;;19.10;99.90;;;;;;4132504;28;20667;-77
2021/08/15 07:58:54;;;;;;;13.30;5.17;;;19.10;99.90;;;;;;4132769;28;20633;-77
2021/08/15 08:00:58;;;;;;;11.20;5.63;;;19.20;99.90;;;;;;4131772;28;20213;-77
2021/08/15 08:03:00;;;;;;;10.77;5.20;;;19.30;99.90;;;;;;4132334;28;20279;-76
2021/08/15 08:05:01;;;;;;;14.83;5.47;;;19.40;99.90;;;;;;4127256;28;20215;-80
2021/08/15 08:07:04;;;;;;;13.03;5.90;;;19.50;99.90;;;;;;4141393;28;20228;-82
2021/08/15 08:09:06;;;;;;;12.53;5.60;;;19.60;99.90;;;;;;4139756;28;20222;-83
2021/08/15 08:11:08;;;;;;;13.23;6.07;;;19.70;99.90;;;;;;4138467;28;20220;-82
2021/08/15 08:13:10;;;;;;;12.00;6.10;;;19.70;99.90;;;;;;4122456;28;20219;-81
2021/08/15 08:15:13;;;;;;;12.43;5.23;;;19.80;99.90;;;;;;4128776;28;20215;-81
2021/08/15 08:17:17;;;;;;;9.20;4.70;;;19.90;99.90;;;;;;4133921;28;20597;-80
2021/08/15 08:19:19;;;;;;;10.83;5.50;;;20.00;99.90;;;;;;4128237;28;20225;-81
2021/08/15 08:21:21;;;;;;;10.87;5.20;;;20.00;99.90;;;;;;4133803;28;20215;-81
2021/08/15 08:23:22;;;;;;;8.70;4.77;;;20.10;99.90;;;;;;4126787;28;20257;-81
2021/08/15 08:25:24;;;;;;;11.83;4.90;;;20.10;99.90;;;;;;4131983;28;20216;-82
2021/08/15 08:27:26;;;;;;;10.77;5.17;;;20.30;99.90;;;;;;4130607;28;20785;-83
2021/08/15 08:29:28;;;;;;;8.43;4.73;;;20.40;99.90;;;;;;4133423;28;20218;-82
2021/08/15 08:31:31;;;;;;;12.13;4.90;;;20.40;99.90;;;;;;4128587;28;20217;-82
2021/08/15 08:33:33;;;;;;;9.17;4.63;;;20.40;99.90;;;;;;4129103;28;20653;-81
2021/08/15 08:35:34;;;;;;;10.07;4.93;;;20.50;99.90;;;;;;4134004;28;20227;-83
2021/08/15 08:37:36;;;;;;;9.43;4.97;;;20.50;99.90;;;;;;4132684;28;20251;-83
2021/08/15 08:39:38;;;;;;;11.10;4.63;;;20.60;99.90;;;;;;4127892;28;20223;-81
2021/08/15 08:41:40;;;;;;;11.43;4.97;;;20.60;99.90;;;;;;4133330;28;20220;-82
2021/08/15 08:43:42;;;;;;;9.90;4.80;;;20.70;99.90;;;;;;4133297;28;20266;-80
2021/08/15 08:45:46;;;;;;;10.33;5.27;;;20.70;99.90;;;;;;4132852;28;20212;-81
2021/08/15 08:47:49;;;;;;;7.17;4.20;;;20.80;99.90;;;;;;4133921;28;20601;-81
2021/08/15 08:49:51;;;;;;;8.97;4.53;;;20.90;99.90;;;;;;4134801;28;20216;-82
2021/08/15 08:51:53;;;;;;;9.83;4.40;;;21.00;99.90;;;;;;4135251;28;20216;-81
2021/08/15 08:53:54;;;;;;;7.93;4.50;;;21.00;99.90;;;;;;4137775;28;20220;-81
2021/08/15 08:55:56;;;;;;;10.47;4.53;;;21.10;99.90;;;;;;4130216;28;20233;-81
2021/08/15 08:57:58;;;;;;;10.17;5.00;;;21.30;99.40;;;;;;4132650;28;20237;-80
2021/08/15 09:00:00;;;;;;;8.80;4.60;;;21.40;99.30;;;;;;4134318;28;20212;-82
2021/08/15 09:02:02;;;;;;;9.43;4.70;;;21.50;99.10;;;;;;4133584;28;20224;-81
2021/08/15 09:04:05;;;;;;;9.33;4.40;;;21.60;98.70;;;;;;4133603;28;20221;-81
2021/08/15 09:06:19;;;;;;;10.13;4.60;;;21.70;98.20;;;;;;4132379;28;20532;-80
2021/08/15 09:08:25;;;;;;;9.83;4.57;;;21.70;98.20;;;;;;4129601;28;20216;-80
2021/08/15 09:10:31;;;;;;;12.37;5.07;;;21.80;97.90;;;;;;4132071;28;20208;-81
2021/08/15 09:12:35;;;;;;;11.27;5.43;;;21.90;97.40;;;;;;4128325;28;20216;-80
2021/08/15 09:14:37;;;;;;;9.50;4.50;;;21.90;97.30;;;;;;4132036;28;20217;-80
2021/08/15 09:16:59;;;;;;;9.63;4.53;;;22.00;97.10;;;;;;4133772;28;20245;-80
2021/08/15 09:19:00;;;;;;;8.73;4.03;;;22.00;97.10;;;;;;4132976;28;20312;-81
2021/08/15 09:21:04;;;;;;;8.47;3.80;;;22.10;96.70;;;;;;4131775;28;20285;-81
2021/08/15 09:23:19;;;;;;;9.40;4.30;;;22.10;96.60;;;;;;4133130;28;20213;-82
2021/08/15 09:25:25;;;;;;;7.20;3.90;;;22.20;96.70;;;;;;4132396;28;20214;-80
2021/08/15 09:27:29;;;;;;;12.13;4.70;;;22.20;95.90;;;;;;4130398;28;20285;-81
2021/08/15 09:29:31;;;;;;;9.93;4.60;;;22.30;95.40;;;;;;4133802;28;20676;-80
2021/08/15 09:31:33;;;;;;;9.37;4.20;;;22.30;95.10;;;;;;4133636;28;20280;-81
2021/08/15 09:33:40;;;;;;;7.17;3.70;;;22.30;94.70;;;;;;4128841;28;20224;-80
2021/08/15 09:35:43;;;;;;;6.37;3.80;;;22.40;95.00;;;;;;4131015;28;20216;-82
2021/08/15 09:37:46;;;;;;;12.93;4.33;;;22.40;94.90;;;;;;4140380;23;20239;-78
2021/08/15 09:39:48;;;;;;;9.83;4.27;;;22.50;94.20;;;;;;4128493;28;20597;-77
2021/08/15 09:41:51;;;;;;;10.27;4.23;;;22.60;93.90;;;;;;4129007;28;20222;-77
2021/08/15 09:44:19;;;;;;;7.00;3.80;;;22.60;93.80;;;;;;4128681;28;20438;-76
2021/08/15 09:46:21;;;;;;;8.77;3.87;;;22.70;94.20;;;;;;4120980;28;20269;-77
2021/08/15 09:48:28;;;;;;;7.87;4.27;;;22.70;93.00;;;;;;4128403;28;20229;-76
2021/08/15 09:50:30;;;;;;;6.43;3.90;;;22.80;93.00;;;;;;4128288;28;20648;-78
2021/08/15 09:52:39;;;;;;;8.20;4.03;;;22.80;93.10;;;;;;4128857;28;20574;-76
2021/08/15 09:54:53;;;;;;;6.30;3.67;;;22.80;92.80;;;;;;4123060;28;20211;-77
2021/08/15 09:56:56;;;;;;;7.33;3.47;;;22.90;92.70;;;;;;4126384;28;20242;-76
2021/08/15 09:59:09;;;;;;;8.60;3.67;;;23.00;92.70;;;;;;4128321;28;20223;-78
2021/08/15 10:01:11;;;;;;;7.90;3.57;;;23.00;92.70;;;;;;4128540;28;20204;-77
2021/08/15 10:03:13;;;;;;;9.87;3.77;;;23.10;92.20;;;;;;4127523;28;20220;-78
2021/08/15 10:05:16;;;;;;;8.57;3.50;;;23.20;92.30;;;;;;4125962;28;20290;-77
2021/08/15 10:07:17;;;;;;;8.63;4.03;;;23.20;92.10;;;;;;4127824;28;20286;-77
2021/08/15 10:09:20;;;;;;;7.47;3.63;;;23.20;91.10;;;;;;4128009;28;20282;-78
2021/08/15 10:11:23;;;;;;;8.40;3.50;;;23.30;91.10;;;;;;4127084;28;20612;-76
2021/08/15 10:13:25;;;;;;;8.27;3.93;;;23.40;91.30;;;;;;4128258;28;20208;-78
2021/08/15 10:15:27;;;;;;;8.37;3.57;;;23.40;90.70;;;;;;4127890;28;20219;-78
2021/08/15 10:17:31;;;;;;;7.50;3.60;;;23.50;90.20;;;;;;4127257;28;20239;-77
2021/08/15 10:19:39;;;;;;;8.37;3.80;;;23.60;89.20;;;;;;4127364;28;20278;-76
2021/08/15 10:21:44;;;;;;;9.33;3.50;;;23.60;89.20;;;;;;4126061;28;20216;-75
2021/08/15 10:23:46;;;;;;;5.97;3.33;;;23.70;85.60;;;;;;4128101;28;20271;-75
2021/08/15 10:25:48;;;;;;;8.03;3.23;;;23.80;84.60;;;;;;4128264;28;20702;-76
2021/08/15 10:27:51;;;;;;;6.93;2.97;;;23.80;85.20;;;;;;4127923;28;20232;-79
2021/08/15 10:29:56;;;;;;;7.93;2.80;;;23.90;85.50;;;;;;4125207;28;20239;-76
2021/08/15 10:32:18;;;;;;;5.97;3.10;;;24.00;84.20;;;;;;4127275;28;20618;-79
2021/08/15 10:34:20;;;;;;;7.57;3.13;;;24.10;84.90;;;;;;4127954;28;20319;-77